sensor_id;sensor_type;location;lat;lon;timestamp;pressure;altitude;pressure_sealevel;temperature;humidity
64908;BME280;64365;-1.756;110.040;2022-10-22T00:00:22;100813.53;;;15.25;95.89
64908;BME280;64365;-1.756;110.040;2022-10-22T00:02:49;100821.56;;;15.25;95.67
64908;BME280;64365;-1.756;110.040;2022-10-22T00:05:15;100817.75;;;15.26;95.52
64908;BME280;64365;-1.756;110.040;2022-10-22T00:07:42;100823.13;;;15.23;95.97
64908;BME280;64365;-1.756;110.040;2022-10-22T00:10:09;100822.72;;;15.24;96.38
64908;BME280;64365;-1.756;110.040;2022-10-22T00:12:37;100826.16;;;15.25;96.36
64908;BME280;64365;-1.756;110.040;2022-10-22T00:15:05;100823.44;;;15.28;96.35
64908;BME280;64365;-1.756;110.040;2022-10-22T00:17:31;100823.03;;;15.30;96.15
64908;BME280;64365;-1.756;110.040;2022-10-22T00:19:58;100826.50;;;15.30;96.21
64908;BME280;64365;-1.756;110.040;2022-10-22T00:22:24;100826.50;;;15.30;96.15
64908;BME280;64365;-1.756;110.040;2022-10-22T00:24:51;100821.50;;;15.32;97.29
64908;BME280;64365;-1.756;110.040;2022-10-22T00:27:18;100825.59;;;15.48;97.25
64908;BME280;64365;-1.756;110.040;2022-10-22T00:29:46;100825.13;;;15.57;96.19
64908;BME280;64365;-1.756;110.040;2022-10-22T00:32:13;100824.78;;;15.55;95.94
64908;BME280;64365;-1.756;110.040;2022-10-22T00:34:40;100837.78;;;15.53;95.76
64908;BME280;64365;-1.756;110.040;2022-10-22T00:37:07;100830.50;;;15.53;95.14
64908;BME280;64365;-1.756;110.040;2022-10-22T00:39:33;100830.22;;;15.44;95.92
64908;BME280;64365;-1.756;110.040;2022-10-22T00:42:00;100832.53;;;15.42;95.71
64908;BME280;64365;-1.756;110.040;2022-10-22T00:45:02;100817.66;;;15.37;96.08
64908;BME280;64365;-1.756;110.040;2022-10-22T00:47:32;100824.22;;;15.29;96.73
64908;BME280;64365;-1.756;110.040;2022-10-22T00:49:59;100821.53;;;15.29;96.66
64908;BME280;64365;-1.756;110.040;2022-10-22T00:52:27;100829.94;;;15.31;96.35
64908;BME280;64365;-1.756;110.040;2022-10-22T00:54:54;100828.81;;;15.28;96.41
64908;BME280;64365;-1.756;110.040;2022-10-22T00:57:21;100825.78;;;15.23;96.88
64908;BME280;64365;-1.756;110.040;2022-10-22T00:59:48;100830.75;;;15.24;96.84
64908;BME280;64365;-1.756;110.040;2022-10-22T01:02:16;100832.66;;;15.24;96.34
64908;BME280;64365;-1.756;110.040;2022-10-22T01:04:44;100836.50;;;15.23;96.73
64908;BME280;64365;-1.756;110.040;2022-10-22T01:07:14;100837.25;;;15.23;96.57
64908;BME280;64365;-1.756;110.040;2022-10-22T01:09:46;100837.28;;;15.20;97.05
64908;BME280;64365;-1.756;110.040;2022-10-22T01:12:21;100837.28;;;15.20;96.69
64908;BME280;64365;-1.756;110.040;2022-10-22T01:14:59;100836.13;;;15.21;96.62
64908;BME280;64365;-1.756;110.040;2022-10-22T01:17:34;100842.66;;;15.20;96.64
64908;BME280;64365;-1.756;110.040;2022-10-22T01:20:11;100850.69;;;15.20;96.43
64908;BME280;64365;-1.756;110.040;2022-10-22T01:22:54;100850.31;;;15.18;96.78
64908;BME280;64365;-1.756;110.040;2022-10-22T01:25:30;100849.16;;;15.19;96.52
64908;BME280;64365;-1.756;110.040;2022-10-22T01:28:09;100846.47;;;15.19;96.97
64908;BME280;64365;-1.756;110.040;2022-10-22T01:30:45;100843.03;;;15.18;96.85
64908;BME280;64365;-1.756;110.040;2022-10-22T01:33:17;100846.09;;;15.16;96.77
64908;BME280;64365;-1.756;110.040;2022-10-22T01:35:44;100848.75;;;15.20;96.75
64908;BME280;64365;-1.756;110.040;2022-10-22T01:38:15;100845.31;;;15.20;96.60
64908;BME280;64365;-1.756;110.040;2022-10-22T01:40:43;100838.78;;;15.21;96.41
64908;BME280;64365;-1.756;110.040;2022-10-22T01:43:11;100833.44;;;15.21;96.40
64908;BME280;64365;-1.756;110.040;2022-10-22T01:45:39;100835.38;;;15.20;96.38
64908;BME280;64365;-1.756;110.040;2022-10-22T01:48:21;100841.88;;;15.19;96.14
64908;BME280;64365;-1.756;110.040;2022-10-22T01:51:06;100835.38;;;15.20;96.21
64908;BME280;64365;-1.756;110.040;2022-10-22T01:53:42;100829.66;;;15.18;96.24
64908;BME280;64365;-1.756;110.040;2022-10-22T01:56:26;100828.88;;;15.18;96.07
64908;BME280;64365;-1.756;110.040;2022-10-22T01:59:02;100831.97;;;15.16;96.05
64908;BME280;64365;-1.756;110.040;2022-10-22T02:01:36;100825.84;;;15.15;96.03
64908;BME280;64365;-1.756;110.040;2022-10-22T02:04:12;100828.88;;;15.18;95.99
64908;BME280;64365;-1.756;110.040;2022-10-22T02:06:42;100825.84;;;15.15;95.87
64908;BME280;64365;-1.756;110.040;2022-10-22T02:09:10;100821.66;;;15.14;95.87
64908;BME280;64365;-1.756;110.040;2022-10-22T02:11:40;100817.44;;;15.13;95.87
64908;BME280;64365;-1.756;110.040;2022-10-22T02:14:08;100815.50;;;15.14;95.38
64908;BME280;64365;-1.756;110.040;2022-10-22T02:16:38;100814.41;;;15.11;95.89
64908;BME280;64365;-1.756;110.040;2022-10-22T02:19:13;100817.47;;;15.10;96.11
64908;BME280;64365;-1.756;110.040;2022-10-22T02:21:43;100812.91;;;15.07;96.29
64908;BME280;64365;-1.756;110.040;2022-10-22T02:24:10;100819.78;;;15.08;96.12
64908;BME280;64365;-1.756;110.040;2022-10-22T02:26:39;100815.56;;;15.10;95.97
64908;BME280;64365;-1.756;110.040;2022-10-22T02:29:11;100810.59;;;15.09;96.04
64908;BME280;64365;-1.756;110.040;2022-10-22T02:31:42;100817.09;;;15.08;96.04
64908;BME280;64365;-1.756;110.040;2022-10-22T02:34:13;100815.19;;;15.08;95.89
64908;BME280;64365;-1.756;110.040;2022-10-22T02:36:42;100815.19;;;15.08;95.91
64908;BME280;64365;-1.756;110.040;2022-10-22T02:39:11;100818.63;;;15.09;95.79
64908;BME280;64365;-1.756;110.040;2022-10-22T02:41:38;100811.78;;;15.04;95.53
64908;BME280;64365;-1.756;110.040;2022-10-22T02:44:08;100820.53;;;15.08;95.50
64908;BME280;64365;-1.756;110.040;2022-10-22T02:46:36;100822.47;;;15.08;95.34
64908;BME280;64365;-1.756;110.040;2022-10-22T02:49:02;100825.88;;;15.08;95.19
64908;BME280;64365;-1.756;110.040;2022-10-22T02:51:30;100826.28;;;15.07;95.35
64908;BME280;64365;-1.756;110.040;2022-10-22T02:53:57;100828.22;;;15.06;95.25
64908;BME280;64365;-1.756;110.040;2022-10-22T02:56:23;100827.06;;;15.04;95.36
64908;BME280;64365;-1.756;110.040;2022-10-22T02:58:50;100828.59;;;15.05;95.23
64908;BME280;64365;-1.756;110.040;2022-10-22T03:01:17;100832.81;;;15.02;95.19
64908;BME280;64365;-1.756;110.040;2022-10-22T03:03:43;100827.81;;;15.04;95.00
64908;BME280;64365;-1.756;110.040;2022-10-22T03:06:10;100833.19;;;15.04;94.94
64908;BME280;64365;-1.756;110.040;2022-10-22T03:08:38;100839.69;;;15.03;94.88
64908;BME280;64365;-1.756;110.040;2022-10-22T03:11:05;100830.56;;;15.01;94.89
64908;BME280;64365;-1.756;110.040;2022-10-22T03:13:31;100837.78;;;15.00;94.90
64908;BME280;64365;-1.756;110.040;2022-10-22T03:15:58;100834.38;;;14.96;95.24
64908;BME280;64365;-1.756;110.040;2022-10-22T03:18:25;100837.47;;;14.94;95.19
64908;BME280;64365;-1.756;110.040;2022-10-22T03:21:00;100829.81;;;14.93;95.21
64908;BME280;64365;-1.756;110.040;2022-10-22T03:23:27;100830.56;;;14.93;95.35
64908;BME280;64365;-1.756;110.040;2022-10-22T03:25:55;100840.53;;;14.93;95.36
64908;BME280;64365;-1.756;110.040;2022-10-22T03:28:21;100838.25;;;14.88;95.48
64908;BME280;64365;-1.756;110.040;2022-10-22T03:30:48;100835.19;;;14.89;95.19
64908;BME280;64365;-1.756;110.040;2022-10-22T03:33:14;100832.91;;;14.88;95.01
64908;BME280;64365;-1.756;110.040;2022-10-22T03:35:43;100838.25;;;14.88;95.14
64908;BME280;64365;-1.756;110.040;2022-10-22T03:38:12;100844.38;;;14.88;95.02
64908;BME280;64365;-1.756;110.040;2022-10-22T03:40:40;100841.34;;;14.82;95.31
64908;BME280;64365;-1.756;110.040;2022-10-22T03:43:09;100842.47;;;14.85;95.46
64908;BME280;64365;-1.756;110.040;2022-10-22T03:45:36;100846.31;;;14.84;95.58
64908;BME280;64365;-1.756;110.040;2022-10-22T03:48:03;100857.41;;;14.82;95.36
64908;BME280;64365;-1.756;110.040;2022-10-22T03:50:30;100853.97;;;14.82;95.50
64908;BME280;64365;-1.756;110.040;2022-10-22T03:52:56;100844.06;;;14.79;95.45
64908;BME280;64365;-1.756;110.040;2022-10-22T03:55:24;100850.50;;;14.81;95.48
64908;BME280;64365;-1.756;110.040;2022-10-22T03:57:50;100859.34;;;14.78;95.47
64908;BME280;64365;-1.756;110.040;2022-10-22T04:00:18;100855.53;;;14.76;95.55
64908;BME280;64365;-1.756;110.040;2022-10-22T04:02:45;100851.38;;;14.68;95.62
64908;BME280;64365;-1.756;110.040;2022-10-22T04:05:12;100867.75;;;14.73;95.63
64908;BME280;64365;-1.756;110.040;2022-10-22T04:07:38;100863.59;;;14.72;95.58
64908;BME280;64365;-1.756;110.040;2022-10-22T04:10:05;100866.63;;;14.71;95.76
64908;BME280;64365;-1.756;110.040;2022-10-22T04:12:32;100862.06;;;14.71;95.38
64908;BME280;64365;-1.756;110.040;2022-10-22T04:14:58;100870.09;;;14.68;95.59
64908;BME280;64365;-1.756;110.040;2022-10-22T04:17:32;100868.19;;;14.64;96.16
64908;BME280;64365;-1.756;110.040;2022-10-22T04:19:58;100867.47;;;14.53;96.44
64908;BME280;64365;-1.756;110.040;2022-10-22T04:22:25;100870.09;;;14.60;95.70
64908;BME280;64365;-1.756;110.040;2022-10-22T04:24:51;100869.31;;;14.60;95.77
64908;BME280;64365;-1.756;110.040;2022-10-22T04:27:18;100872.03;;;14.56;95.97
64908;BME280;64365;-1.756;110.040;2022-10-22T04:29:44;100876.97;;;14.58;95.79
64908;BME280;64365;-1.756;110.040;2022-10-22T04:32:11;100871.28;;;14.52;96.50
64908;BME280;64365;-1.756;110.040;2022-10-22T04:34:39;100884.25;;;14.54;96.78
64908;BME280;64365;-1.756;110.040;2022-10-22T04:37:05;100880.44;;;14.55;96.82
64908;BME280;64365;-1.756;110.040;2022-10-22T04:39:32;100875.09;;;14.55;97.23
64908;BME280;64365;-1.756;110.040;2022-10-22T04:41:58;100881.94;;;14.56;97.11
64908;BME280;64365;-1.756;110.040;2022-10-22T04:44:25;100883.47;;;14.60;96.76
64908;BME280;64365;-1.756;110.040;2022-10-22T04:46:51;100883.09;;;14.58;96.76
64908;BME280;64365;-1.756;110.040;2022-10-22T04:49:18;100888.03;;;14.60;96.70
64908;BME280;64365;-1.756;110.040;2022-10-22T04:51:46;100883.88;;;14.59;96.94
64908;BME280;64365;-1.756;110.040;2022-10-22T04:54:12;100880.06;;;14.56;97.23
64908;BME280;64365;-1.756;110.040;2022-10-22T04:56:39;100887.28;;;14.56;97.26
64908;BME280;64365;-1.756;110.040;2022-10-22T04:59:07;100898.38;;;14.61;96.96
64908;BME280;64365;-1.756;110.040;2022-10-22T05:01:35;100891.88;;;14.59;97.22
64908;BME280;64365;-1.756;110.040;2022-10-22T05:04:04;100891.50;;;14.60;97.43
64908;BME280;64365;-1.756;110.040;2022-10-22T05:06:33;100894.22;;;14.53;98.06
64908;BME280;64365;-1.756;110.040;2022-10-22T05:09:03;100881.19;;;14.55;97.65
64908;BME280;64365;-1.756;110.040;2022-10-22T05:11:32;100889.97;;;14.56;97.49
64908;BME280;64365;-1.756;110.040;2022-10-22T05:14:00;100890.75;;;14.56;97.53
64908;BME280;64365;-1.756;110.040;2022-10-22T05:16:28;100894.97;;;14.57;97.66
64908;BME280;64365;-1.756;110.040;2022-10-22T05:18:56;100881.94;;;14.59;97.15
64908;BME280;64365;-1.756;110.040;2022-10-22T05:21:23;100876.25;;;14.50;97.37
64908;BME280;64365;-1.756;110.040;2022-10-22T05:23:50;100888.84;;;14.53;97.43
64908;BME280;64365;-1.756;110.040;2022-10-22T05:26:19;100890.41;;;14.51;97.47
64908;BME280;64365;-1.756;110.040;2022-10-22T05:28:46;100893.81;;;14.47;97.88
64908;BME280;64365;-1.756;110.040;2022-10-22T05:31:14;100901.84;;;14.51;97.67
64908;BME280;64365;-1.756;110.040;2022-10-22T05:33:42;100902.25;;;14.46;97.83
64908;BME280;64365;-1.756;110.040;2022-10-22T05:36:11;100903.78;;;14.47;97.88
64908;BME280;64365;-1.756;110.040;2022-10-22T05:38:38;100895.00;;;14.46;97.86
64908;BME280;64365;-1.756;110.040;2022-10-22T05:41:06;100902.63;;;14.44;97.87
64908;BME280;64365;-1.756;110.040;2022-10-22T05:43:36;100902.25;;;14.46;97.78
64908;BME280;64365;-1.756;110.040;2022-10-22T05:46:04;100901.09;;;14.43;98.09
64908;BME280;64365;-1.756;110.040;2022-10-22T05:48:31;100908.72;;;14.45;97.81
64908;BME280;64365;-1.756;110.040;2022-10-22T05:51:01;100907.22;;;14.44;97.66
64908;BME280;64365;-1.756;110.040;2022-10-22T05:53:29;100919.06;;;14.46;97.56
64908;BME280;64365;-1.756;110.040;2022-10-22T05:55:59;100916.00;;;14.41;97.93
64908;BME280;64365;-1.756;110.040;2022-10-22T05:58:25;100914.47;;;14.43;97.70
64908;BME280;64365;-1.756;110.040;2022-10-22T06:00:53;100927.84;;;14.43;97.65
64908;BME280;64365;-1.756;110.040;2022-10-22T06:03:19;100933.97;;;14.44;97.64
64908;BME280;64365;-1.756;110.040;2022-10-22T06:05:46;100932.03;;;14.41;97.68
64908;BME280;64365;-1.756;110.040;2022-10-22T06:08:12;100933.97;;;14.40;97.45
64908;BME280;64365;-1.756;110.040;2022-10-22T06:10:41;100931.66;;;14.46;97.03
64908;BME280;64365;-1.756;110.040;2022-10-22T06:13:08;100936.25;;;14.38;97.58
64908;BME280;64365;-1.756;110.040;2022-10-22T06:15:35;100941.59;;;14.38;97.48
64908;BME280;64365;-1.756;110.040;2022-10-22T06:18:03;100944.66;;;14.37;97.34
64908;BME280;64365;-1.756;110.040;2022-10-22T06:20:29;100941.59;;;14.42;97.31
64908;BME280;64365;-1.756;110.040;2022-10-22T06:22:56;100945.81;;;14.39;97.86
64908;BME280;64365;-1.756;110.040;2022-10-22T06:25:23;100950.41;;;14.39;98.12
64908;BME280;64365;-1.756;110.040;2022-10-22T06:27:50;100952.28;;;14.42;98.09
64908;BME280;64365;-1.756;110.040;2022-10-22T06:30:16;100946.94;;;14.38;98.25
64908;BME280;64365;-1.756;110.040;2022-10-22T06:32:43;100946.16;;;14.45;98.14
64908;BME280;64365;-1.756;110.040;2022-10-22T06:35:11;100955.31;;;14.51;97.54
64908;BME280;64365;-1.756;110.040;2022-10-22T06:37:37;100967.16;;;14.50;97.95
64908;BME280;64365;-1.756;110.040;2022-10-22T06:40:04;100969.84;;;14.54;97.81
64908;BME280;64365;-1.756;110.040;2022-10-22T06:42:31;100969.06;;;14.57;97.40
64908;BME280;64365;-1.756;110.040;2022-10-22T06:44:58;100970.59;;;14.58;97.58
64908;BME280;64365;-1.756;110.040;2022-10-22T06:47:24;100986.66;;;14.65;97.61
64908;BME280;64365;-1.756;110.040;2022-10-22T06:49:50;100992.00;;;14.65;97.47
64908;BME280;64365;-1.756;110.040;2022-10-22T06:52:18;100992.00;;;14.69;97.16
64908;BME280;64365;-1.756;110.040;2022-10-22T06:54:45;100987.03;;;14.67;97.17
64908;BME280;64365;-1.756;110.040;2022-10-22T06:57:11;100998.88;;;14.70;97.14
64908;BME280;64365;-1.756;110.040;2022-10-22T06:59:38;100999.59;;;14.77;96.64
64908;BME280;64365;-1.756;110.040;2022-10-22T07:02:05;101001.53;;;14.73;97.02
64908;BME280;64365;-1.756;110.040;2022-10-22T07:04:31;101003.44;;;14.76;97.10
64908;BME280;64365;-1.756;110.040;2022-10-22T07:06:58;101002.28;;;14.81;97.08
64908;BME280;64365;-1.756;110.040;2022-10-22T07:09:26;101008.00;;;14.83;97.04
64908;BME280;64365;-1.756;110.040;2022-10-22T07:11:52;101012.59;;;14.86;96.84
64908;BME280;64365;-1.756;110.040;2022-10-22T07:14:19;101014.88;;;14.91;96.98
64908;BME280;64365;-1.756;110.040;2022-10-22T07:16:45;101014.81;;;14.98;96.91
64908;BME280;64365;-1.756;110.040;2022-10-22T07:19:12;101021.31;;;15.05;96.56
64908;BME280;64365;-1.756;110.040;2022-10-22T07:21:39;101017.47;;;15.09;96.33
64908;BME280;64365;-1.756;110.040;2022-10-22T07:24:06;101025.50;;;15.09;95.97
64908;BME280;64365;-1.756;110.040;2022-10-22T07:26:34;101019.34;;;15.12;95.74
64908;BME280;64365;-1.756;110.040;2022-10-22T07:29:01;101019.34;;;15.16;95.24
64908;BME280;64365;-1.756;110.040;2022-10-22T07:31:28;101025.84;;;15.19;95.66
64908;BME280;64365;-1.756;110.040;2022-10-22T07:33:56;101036.13;;;15.27;94.57
64908;BME280;64365;-1.756;110.040;2022-10-22T07:36:22;101037.66;;;15.28;94.14
64908;BME280;64365;-1.756;110.040;2022-10-22T07:38:53;101046.09;;;15.23;94.68
64908;BME280;64365;-1.756;110.040;2022-10-22T07:41:20;101038.78;;;15.31;94.74
64908;BME280;64365;-1.756;110.040;2022-10-22T07:43:49;101046.41;;;15.40;94.93
64908;BME280;64365;-1.756;110.040;2022-10-22T07:46:16;101050.47;;;15.66;94.84
64908;BME280;64365;-1.756;110.040;2022-10-22T07:48:42;101050.13;;;16.16;98.62
64908;BME280;64365;-1.756;110.040;2022-10-22T07:51:09;101043.81;;;16.79;92.37
64908;BME280;64365;-1.756;110.040;2022-10-22T07:53:36;101046.97;;;17.09;85.16
64908;BME280;64365;-1.756;110.040;2022-10-22T07:56:03;101052.28;;;17.12;83.82
64908;BME280;64365;-1.756;110.040;2022-10-22T07:58:29;101059.22;;;17.10;83.31
64908;BME280;64365;-1.756;110.040;2022-10-22T08:00:58;101070.66;;;17.17;83.21
64908;BME280;64365;-1.756;110.040;2022-10-22T08:03:26;101065.28;;;17.17;82.60
64908;BME280;64365;-1.756;110.040;2022-10-22T08:05:53;101076.25;;;16.99;82.99
64908;BME280;64365;-1.756;110.040;2022-10-22T08:08:20;101074.41;;;16.89;82.72
64908;BME280;64365;-1.756;110.040;2022-10-22T08:10:49;101084.50;;;16.78;82.39
64908;BME280;64365;-1.756;110.040;2022-10-22T08:13:17;101078.16;;;16.57;83.59
64908;BME280;64365;-1.756;110.040;2022-10-22T08:15:44;101080.91;;;16.50;84.04
64908;BME280;64365;-1.756;110.040;2022-10-22T08:18:12;101092.94;;;16.31;85.27
64908;BME280;64365;-1.756;110.040;2022-10-22T08:20:39;101100.66;;;16.25;85.47
64908;BME280;64365;-1.756;110.040;2022-10-22T08:23:06;101101.50;;;16.15;86.21
64908;BME280;64365;-1.756;110.040;2022-10-22T08:25:33;101100.81;;;16.00;87.17
64908;BME280;64365;-1.756;110.040;2022-10-22T08:27:59;101108.13;;;15.96;88.15
64908;BME280;64365;-1.756;110.040;2022-10-22T08:30:26;101110.06;;;15.92;88.28
64908;BME280;64365;-1.756;110.040;2022-10-22T08:32:54;101106.59;;;15.98;88.52
64908;BME280;64365;-1.756;110.040;2022-10-22T08:35:21;101093.22;;;15.91;88.96
64908;BME280;64365;-1.756;110.040;2022-10-22T08:37:48;101104.28;;;15.97;89.04
64908;BME280;64365;-1.756;110.040;2022-10-22T08:40:20;101111.94;;;16.02;88.42
64908;BME280;64365;-1.756;110.040;2022-10-22T08:43:22;101112.00;;;15.91;89.37
64908;BME280;64365;-1.756;110.040;2022-10-22T08:45:59;101121.53;;;15.99;89.33
64908;BME280;64365;-1.756;110.040;2022-10-22T08:48:40;101125.28;;;16.09;88.11
64908;BME280;64365;-1.756;110.040;2022-10-22T08:51:12;101109.66;;;15.97;88.74
64908;BME280;64365;-1.756;110.040;2022-10-22T08:53:48;101127.97;;;16.09;88.79
64908;BME280;64365;-1.756;110.040;2022-10-22T08:56:16;101132.13;;;16.14;88.41
64908;BME280;64365;-1.756;110.040;2022-10-22T08:58:48;101121.06;;;16.12;88.47
64908;BME280;64365;-1.756;110.040;2022-10-22T09:01:32;101130.59;;;16.16;87.90
64908;BME280;64365;-1.756;110.040;2022-10-22T09:04:03;101134.84;;;16.10;88.62
64908;BME280;64365;-1.756;110.040;2022-10-22T09:06:36;101134.88;;;16.07;89.75
64908;BME280;64365;-1.756;110.040;2022-10-22T09:09:10;101136.72;;;16.17;88.28
64908;BME280;64365;-1.756;110.040;2022-10-22T09:11:39;101143.97;;;16.24;87.66
64908;BME280;64365;-1.756;110.040;2022-10-22T09:14:10;101144.00;;;16.16;88.50
64908;BME280;64365;-1.756;110.040;2022-10-22T09:16:47;101145.47;;;16.25;88.55
64908;BME280;64365;-1.756;110.040;2022-10-22T09:19:20;101152.03;;;16.20;89.08
64908;BME280;64365;-1.756;110.040;2022-10-22T09:22:00;101151.63;;;16.25;89.09
64908;BME280;64365;-1.756;110.040;2022-10-22T09:24:35;101166.50;;;16.33;88.39
64908;BME280;64365;-1.756;110.040;2022-10-22T09:27:10;101156.13;;;16.36;88.76
64908;BME280;64365;-1.756;110.040;2022-10-22T09:29:37;101169.09;;;16.44;88.48
64908;BME280;64365;-1.756;110.040;2022-10-22T09:32:04;101167.16;;;16.45;88.67
64908;BME280;64365;-1.756;110.040;2022-10-22T09:34:31;101168.25;;;16.55;87.81
64908;BME280;64365;-1.756;110.040;2022-10-22T09:37:01;101167.81;;;16.60;87.05
64908;BME280;64365;-1.756;110.040;2022-10-22T09:39:31;101173.97;;;16.60;86.67
64908;BME280;64365;-1.756;110.040;2022-10-22T09:41:58;101178.13;;;16.65;87.08
64908;BME280;64365;-1.756;110.040;2022-10-22T09:44:25;101170.84;;;16.65;86.79
64908;BME280;64365;-1.756;110.040;2022-10-22T09:46:52;101179.28;;;16.64;87.65
64908;BME280;64365;-1.756;110.040;2022-10-22T09:49:20;101186.09;;;16.79;87.29
64908;BME280;64365;-1.756;110.040;2022-10-22T09:51:51;101191.38;;;16.87;86.86
64908;BME280;64365;-1.756;110.040;2022-10-22T09:54:21;101204.66;;;17.05;85.87
64908;BME280;64365;-1.756;110.040;2022-10-22T09:56:54;101191.41;;;17.28;83.78
64908;BME280;64365;-1.756;110.040;2022-10-22T09:59:28;101196.09;;;17.55;83.68
64908;BME280;64365;-1.756;110.040;2022-10-22T10:01:59;101202.59;;;17.92;81.00
64908;BME280;64365;-1.756;110.040;2022-10-22T10:04:26;101205.00;;;18.14;80.08
64908;BME280;64365;-1.756;110.040;2022-10-22T10:06:54;101193.03;;;18.18;79.95
64908;BME280;64365;-1.756;110.040;2022-10-22T10:09:23;101200.69;;;18.20;78.56
64908;BME280;64365;-1.756;110.040;2022-10-22T10:11:56;101208.53;;;18.07;78.42
64908;BME280;64365;-1.756;110.040;2022-10-22T10:14:34;101211.66;;;18.02;78.37
64908;BME280;64365;-1.756;110.040;2022-10-22T10:17:10;101216.03;;;17.92;78.27
64908;BME280;64365;-1.756;110.040;2022-10-22T10:19:51;101221.81;;;17.87;77.80
64908;BME280;64365;-1.756;110.040;2022-10-22T10:22:36;101222.41;;;17.71;78.77
64908;BME280;64365;-1.756;110.040;2022-10-22T10:25:29;101227.13;;;17.60;79.84
64908;BME280;64365;-1.756;110.040;2022-10-22T10:28:03;101236.72;;;17.61;79.36
64908;BME280;64365;-1.756;110.040;2022-10-22T10:30:37;101238.38;;;17.51;80.10
64908;BME280;64365;-1.756;110.040;2022-10-22T10:33:18;101242.63;;;17.48;80.84
64908;BME280;64365;-1.756;110.040;2022-10-22T10:35:53;101239.88;;;17.52;80.54
64908;BME280;64365;-1.756;110.040;2022-10-22T10:38:36;101243.66;;;17.58;79.69
64908;BME280;64365;-1.756;110.040;2022-10-22T10:41:16;101236.84;;;17.50;80.28
64908;BME280;64365;-1.756;110.040;2022-10-22T10:43:52;101243.34;;;17.53;80.43
64908;BME280;64365;-1.756;110.040;2022-10-22T10:46:28;101252.44;;;17.62;80.14
64908;BME280;64365;-1.756;110.040;2022-10-22T10:49:01;101255.44;;;17.72;79.52
64908;BME280;64365;-1.756;110.040;2022-10-22T10:51:40;101253.38;;;17.83;79.23
64908;BME280;64365;-1.756;110.040;2022-10-22T10:54:20;101258.31;;;17.92;77.95
64908;BME280;64365;-1.756;110.040;2022-10-22T10:56:55;101259.06;;;17.92;77.86
64908;BME280;64365;-1.756;110.040;2022-10-22T10:59:40;101249.09;;;17.89;77.45
64908;BME280;64365;-1.756;110.040;2022-10-22T11:02:26;101256.78;;;17.87;78.34
64908;BME280;64365;-1.756;110.040;2022-10-22T11:05:13;101259.44;;;17.91;78.27
64908;BME280;64365;-1.756;110.040;2022-10-22T11:07:49;101267.44;;;17.98;78.45
64908;BME280;64365;-1.756;110.040;2022-10-22T11:10:27;101261.13;;;18.12;77.85
64908;BME280;64365;-1.756;110.040;2022-10-22T11:13:00;101266.41;;;18.19;76.67
64908;BME280;64365;-1.756;110.040;2022-10-22T11:15:28;101266.31;;;18.26;75.74
64908;BME280;64365;-1.756;110.040;2022-10-22T11:18:02;101269.72;;;18.30;76.31
64908;BME280;64365;-1.756;110.040;2022-10-22T11:20:40;101268.84;;;18.37;76.60
64908;BME280;64365;-1.756;110.040;2022-10-22T11:23:15;101278.97;;;18.57;74.95
64908;BME280;64365;-1.756;110.040;2022-10-22T11:25:44;101273.59;;;18.57;75.00
64908;BME280;64365;-1.756;110.040;2022-10-22T11:28:17;101275.72;;;18.69;74.33
64908;BME280;64365;-1.756;110.040;2022-10-22T11:30:48;101274.44;;;18.77;73.80
64908;BME280;64365;-1.756;110.040;2022-10-22T11:33:20;101271.28;;;18.82;74.81
64908;BME280;64365;-1.756;110.040;2022-10-22T11:35:48;101280.63;;;19.01;71.54
64908;BME280;64365;-1.756;110.040;2022-10-22T11:38:17;101283.31;;;19.01;71.44
64908;BME280;64365;-1.756;110.040;2022-10-22T11:40:47;101287.47;;;19.06;70.23
64908;BME280;64365;-1.756;110.040;2022-10-22T11:43:28;101271.06;;;18.97;69.50
64908;BME280;64365;-1.756;110.040;2022-10-22T11:46:08;101285.63;;;18.76;70.18
64908;BME280;64365;-1.756;110.040;2022-10-22T11:49:00;101292.28;;;18.67;70.51
64908;BME280;64365;-1.756;110.040;2022-10-22T11:51:33;101287.03;;;18.57;71.23
64908;BME280;64365;-1.756;110.040;2022-10-22T11:54:01;101288.66;;;18.50;71.79
64908;BME280;64365;-1.756;110.040;2022-10-22T11:56:36;101289.88;;;18.46;72.66
64908;BME280;64365;-1.756;110.040;2022-10-22T11:59:36;101289.44;;;18.51;72.57
64908;BME280;64365;-1.756;110.040;2022-10-22T12:01:54;101297.84;;;18.53;72.84
64908;BME280;64365;-1.756;110.040;2022-10-22T12:04:21;101293.19;;;18.57;70.95
64908;BME280;64365;-1.756;110.040;2022-10-22T12:06:56;101291.72;;;18.52;69.08
64908;BME280;64365;-1.756;110.040;2022-10-22T12:09:24;101291.41;;;18.47;69.97
64908;BME280;64365;-1.756;110.040;2022-10-22T12:12:00;101298.75;;;18.43;69.07
64908;BME280;64365;-1.756;110.040;2022-10-22T12:14:32;101299.16;;;18.41;68.42
64908;BME280;64365;-1.756;110.040;2022-10-22T12:17:04;101302.72;;;18.34;68.40
64908;BME280;64365;-1.756;110.040;2022-10-22T12:19:37;101305.78;;;18.37;68.40
64908;BME280;64365;-1.756;110.040;2022-10-22T12:22:15;101306.19;;;18.35;68.41
64908;BME280;64365;-1.756;110.040;2022-10-22T12:24:45;101305.78;;;18.37;69.37
64908;BME280;64365;-1.756;110.040;2022-10-22T12:27:18;101300.69;;;18.42;68.76
64908;BME280;64365;-1.756;110.040;2022-10-22T12:29:46;101316.03;;;18.45;68.35
64908;BME280;64365;-1.756;110.040;2022-10-22T12:32:14;101306.75;;;18.50;67.97
64908;BME280;64365;-1.756;110.040;2022-10-22T12:34:45;101310.41;;;18.63;67.81
64908;BME280;64365;-1.756;110.040;2022-10-22T12:37:13;101311.38;;;18.77;68.43
64908;BME280;64365;-1.756;110.040;2022-10-22T12:39:40;101309.47;;;19.01;68.03
64908;BME280;64365;-1.756;110.040;2022-10-22T12:42:09;101314.94;;;19.21;65.37
64908;BME280;64365;-1.756;110.040;2022-10-22T12:44:38;101309.78;;;19.30;65.11